DTTX/SFA METAR and TAF weather

Enter ICAO airport designator
Station Type Date Time Source
DTTX METAR 2019/09/20 20:00 UTC NOAA

DTTX 202000Z 11011KT 9999 FEW020 28/24 Q1017


Station Type Date Time Source
DTTX Decoded METAR 2019/09/20 20:00 UTC NOAA

Sfax El-Maou, Tunisia (DTTX) 34-43N 010-41E 23M
Sep 20, 2019 - 04:00 PM EDT / 2019.09.20 2000 UTC
Wind: from the ESE (110 degrees) at 13 MPH (11 KT):0
Visibility: greater than 7 mile(s):0
Sky conditions: mostly clear
Temperature: 82 F (28 C)
Dew Point: 75 F (24 C)
Relative Humidity: 78%
Pressure (altimeter): 30.03 in. Hg (1017 hPa)
ob: DTTX 202000Z 11011KT 9999 FEW020 28/24 Q1017
cycle: 20

Station Type Date Time Source
DTTX TAF 2019/09/20 18:40 UTC NOAA

TAF DTTX 201700Z 2018/2118 06010KT 9999 SCT020
BECMG 2113/2115 12012KT

Example: see airport list